createdAt,value
2023-04-08T00:02:09.754Z,13.30
2023-04-08T00:04:42.652Z,20.30
2023-04-08T00:07:15.699Z,10.30
2023-04-08T00:09:49.451Z,14.10
2023-04-08T00:12:23.015Z,20.90
2023-04-08T00:14:56.065Z,9.40
2023-04-08T00:17:28.920Z,28.20
2023-04-08T00:20:01.730Z,12.80
2023-04-08T00:22:34.945Z,15.20
2023-04-08T00:25:09.737Z,19.40
2023-04-08T00:27:45.841Z,16.90
2023-04-08T00:30:18.518Z,12.70
2023-04-08T00:32:51.747Z,13.00
2023-04-08T00:35:24.846Z,15.20
2023-04-08T00:37:58.038Z,11.10
2023-04-08T00:40:31.515Z,11.80
2023-04-08T00:43:04.554Z,21.10
2023-04-08T00:45:37.828Z,17.90
2023-04-08T00:48:11.091Z,12.50
2023-04-08T00:50:44.330Z,17.70
2023-04-08T00:53:37.076Z,13.70
2023-04-08T00:56:10.116Z,16.40
2023-04-08T00:58:42.765Z,16.50
2023-04-08T01:01:17.027Z,16.70
2023-04-08T01:04:06.822Z,13.20
2023-04-08T01:06:48.397Z,18.90
2023-04-08T01:09:22.785Z,17.30
2023-04-08T01:11:57.094Z,16.70
2023-04-08T01:14:29.890Z,14.30
2023-04-08T01:17:02.917Z,15.30
2023-04-08T01:19:37.684Z,13.20
2023-04-08T01:22:21.258Z,17.90
2023-04-08T01:24:53.982Z,17.50
2023-04-08T01:27:26.987Z,16.30
2023-04-08T01:30:00.053Z,13.80
2023-04-08T01:32:34.204Z,13.00
2023-04-08T01:35:07.704Z,16.70
2023-04-08T01:37:54.997Z,21.30
2023-04-08T01:40:28.387Z,13.30
2023-04-08T01:43:01.600Z,17.70
2023-04-08T01:45:34.773Z,12.50
2023-04-08T01:48:08.052Z,13.30
2023-04-08T01:50:43.012Z,13.80
2023-04-08T01:53:15.900Z,13.30
2023-04-08T01:55:51.101Z,17.60
2023-04-08T01:58:24.931Z,13.20
2023-04-08T02:00:57.560Z,15.10
2023-04-08T02:03:32.557Z,17.30
2023-04-08T02:06:05.480Z,14.90
2023-04-08T02:08:38.534Z,19.80
2023-04-08T02:11:13.075Z,13.60
2023-04-08T02:13:46.019Z,19.30
2023-04-08T02:16:20.206Z,17.50
2023-04-08T02:18:56.849Z,15.20
2023-04-08T02:21:35.899Z,19.70
2023-04-08T02:24:12.737Z,15.50
2023-04-08T02:26:45.960Z,18.30
2023-04-08T02:29:18.739Z,15.70
2023-04-08T02:31:51.428Z,17.40
2023-04-08T02:34:24.444Z,14.10
2023-04-08T02:36:57.227Z,20.10
2023-04-08T02:39:35.170Z,13.80
2023-04-08T02:42:10.720Z,21.00
2023-04-08T02:44:44.855Z,16.80
2023-04-08T02:47:17.852Z,14.00
2023-04-08T02:49:53.554Z,20.60
2023-04-08T02:52:27.450Z,15.80
2023-04-08T02:55:02.056Z,13.90
2023-04-08T02:57:35.062Z,22.70
2023-04-08T03:00:14.331Z,19.30
2023-04-08T03:02:49.063Z,13.70
2023-04-08T03:05:22.430Z,21.20
2023-04-08T03:07:55.185Z,19.00
2023-04-08T03:10:29.813Z,25.10
2023-04-08T03:13:03.144Z,21.90
2023-04-08T03:15:36.298Z,18.60
2023-04-08T03:18:09.310Z,18.70
2023-04-08T03:20:42.771Z,22.70
2023-04-08T03:23:18.331Z,32.80
2023-04-08T03:25:51.754Z,30.10
2023-04-08T03:28:24.452Z,20.60
2023-04-08T03:30:57.500Z,26.30
2023-04-08T03:33:30.714Z,21.30
2023-04-08T03:36:03.524Z,21.80
2023-04-08T03:38:37.918Z,22.40
2023-04-08T03:41:10.866Z,25.00
2023-04-08T03:43:43.781Z,24.20
2023-04-08T03:46:16.452Z,25.60
2023-04-08T03:48:50.743Z,25.80
2023-04-08T03:51:24.022Z,24.00
2023-04-08T03:53:57.214Z,29.60
2023-04-08T03:56:29.942Z,25.80
2023-04-08T03:59:05.223Z,33.00
2023-04-08T04:01:39.587Z,24.50
2023-04-08T04:04:13.782Z,31.50
2023-04-08T04:06:47.113Z,25.70
2023-04-08T04:09:20.065Z,28.30
2023-04-08T04:11:53.039Z,29.30
2023-04-08T04:14:31.039Z,27.80
2023-04-08T04:17:03.905Z,29.70
2023-04-08T04:19:37.075Z,22.20
2023-04-08T04:22:13.575Z,27.90
2023-04-08T04:24:49.886Z,27.70
2023-04-08T04:27:22.523Z,23.20
2023-04-08T04:29:55.175Z,29.20
2023-04-08T04:32:30.001Z,27.10
2023-04-08T04:35:03.408Z,30.80
2023-04-08T04:37:36.739Z,27.10
2023-04-08T04:40:14.260Z,26.50
2023-04-08T04:42:47.813Z,24.00
2023-04-08T04:45:20.698Z,28.70
2023-04-08T04:47:54.559Z,29.90
2023-04-08T04:50:27.561Z,28.80
2023-04-08T04:55:42.241Z,25.00
2023-04-08T04:58:15.778Z,17.20
2023-04-08T05:00:48.972Z,21.40
2023-04-08T05:03:23.112Z,29.10
2023-04-08T05:06:00.788Z,27.60
2023-04-08T05:08:33.861Z,21.30
2023-04-08T05:11:07.008Z,27.70
2023-04-08T05:13:43.062Z,27.40
2023-04-08T05:16:16.740Z,28.90
2023-04-08T05:18:49.672Z,30.00
2023-04-08T05:21:28.729Z,31.60
2023-04-08T05:24:02.205Z,29.00
2023-04-08T05:26:35.729Z,28.00
2023-04-08T05:29:13.568Z,24.80
2023-04-08T05:31:46.952Z,30.10
2023-04-08T05:34:23.353Z,26.50
2023-04-08T05:36:56.390Z,28.20
2023-04-08T05:39:30.748Z,27.80
2023-04-08T05:42:04.246Z,25.60
2023-04-08T05:44:37.262Z,30.80
2023-04-08T05:47:10.093Z,28.20
2023-04-08T05:49:42.858Z,29.20
2023-04-08T05:52:18.555Z,32.30
2023-04-08T05:54:51.268Z,19.80
2023-04-08T05:57:23.982Z,26.00
2023-04-08T05:59:56.764Z,22.40
2023-04-08T06:02:32.678Z,25.50
2023-04-08T06:05:06.062Z,27.30
2023-04-08T06:07:39.715Z,23.30
2023-04-08T06:10:13.503Z,25.70
2023-04-08T06:12:46.724Z,18.70
2023-04-08T06:15:19.843Z,17.20
2023-04-08T06:17:52.768Z,26.40
2023-04-08T06:20:25.877Z,22.20
2023-04-08T06:22:58.981Z,31.40
2023-04-08T06:25:32.693Z,29.60
2023-04-08T06:28:05.982Z,20.50
2023-04-08T06:30:43.715Z,20.80
2023-04-08T06:33:17.275Z,19.40
2023-04-08T06:35:49.919Z,29.60
2023-04-08T06:38:24.159Z,29.20
2023-04-08T06:40:57.933Z,24.80
2023-04-08T06:43:31.465Z,33.30
2023-04-08T06:46:04.354Z,23.30
2023-04-08T06:48:37.999Z,17.50
2023-04-08T06:51:11.894Z,26.60
2023-04-08T06:53:45.289Z,18.40
2023-04-08T06:56:18.102Z,25.30
2023-04-08T06:58:52.098Z,21.40
2023-04-08T07:01:25.255Z,34.40
2023-04-08T07:03:58.441Z,26.50
2023-04-08T07:06:31.770Z,22.10
2023-04-08T07:09:05.211Z,21.00
2023-04-08T07:11:40.702Z,26.00
2023-04-08T07:14:14.095Z,16.50
2023-04-08T07:16:53.920Z,18.60
2023-04-08T07:19:27.339Z,15.20
2023-04-08T07:22:00.141Z,15.30
2023-04-08T07:24:34.592Z,14.50
2023-04-08T07:27:07.655Z,17.20
2023-04-08T07:29:42.044Z,17.50
2023-04-08T07:32:15.000Z,15.30
2023-04-08T07:34:47.984Z,21.10
2023-04-08T07:37:21.384Z,15.50
2023-04-08T07:39:54.018Z,15.20
2023-04-08T07:42:29.455Z,29.00
2023-04-08T07:45:02.420Z,18.70
2023-04-08T07:47:37.185Z,20.40
2023-04-08T07:50:11.308Z,18.60
2023-04-08T07:52:44.239Z,12.50
2023-04-08T07:55:17.501Z,19.20
2023-04-08T07:57:51.165Z,19.50
2023-04-08T08:00:25.221Z,15.80
2023-04-08T08:03:18.321Z,14.00
2023-04-08T08:05:51.431Z,13.60
2023-04-08T08:08:27.458Z,19.90
2023-04-08T08:11:00.756Z,12.80
2023-04-08T08:13:39.038Z,14.30
2023-04-08T08:16:12.633Z,14.20
2023-04-08T08:18:47.876Z,21.10
2023-04-08T08:21:28.711Z,14.30
2023-04-08T08:24:01.607Z,14.60
2023-04-08T08:26:35.817Z,12.00
2023-04-08T08:29:09.096Z,18.10
2023-04-08T08:31:42.880Z,16.80
2023-04-08T08:34:15.721Z,18.10
2023-04-08T08:36:48.511Z,17.90
2023-04-08T08:39:21.332Z,19.00
2023-04-08T08:41:57.015Z,10.90
2023-04-08T08:44:29.629Z,15.30
2023-04-08T08:47:02.312Z,15.10
2023-04-08T08:49:35.261Z,18.00
2023-04-08T08:52:08.236Z,16.70
2023-04-08T08:54:42.509Z,15.80
2023-04-08T08:57:21.281Z,16.90
2023-04-08T08:59:54.155Z,18.90
2023-04-08T09:02:32.275Z,18.40
2023-04-08T09:05:10.835Z,14.00
2023-04-08T09:07:44.999Z,12.90
2023-04-08T09:10:17.850Z,17.20
2023-04-08T09:13:00.702Z,23.40
2023-04-08T09:15:34.059Z,16.90
2023-04-08T09:18:07.266Z,16.20
2023-04-08T09:20:56.708Z,15.20
2023-04-08T09:23:39.831Z,14.50
2023-04-08T09:26:13.875Z,17.60
2023-04-08T09:29:02.326Z,14.00
2023-04-08T09:31:41.652Z,17.60
2023-04-08T09:34:22.003Z,23.20
2023-04-08T09:36:54.752Z,12.80
2023-04-08T09:39:28.171Z,14.40
2023-04-08T09:42:02.369Z,14.90
2023-04-08T09:44:35.990Z,16.40
2023-04-08T09:47:13.349Z,10.60
2023-04-08T09:49:48.341Z,15.40
2023-04-08T09:52:23.552Z,18.20
2023-04-08T09:55:00.835Z,14.10
2023-04-08T09:57:37.473Z,15.90
2023-04-08T10:00:13.111Z,15.90
2023-04-08T10:03:11.912Z,17.90
2023-04-08T10:05:47.383Z,20.70
2023-04-08T10:08:22.081Z,13.10
2023-04-08T10:10:55.403Z,18.70
2023-04-08T10:13:29.947Z,21.40
2023-04-08T10:16:24.577Z,15.30
2023-04-08T10:18:57.987Z,21.20
2023-04-08T10:21:43.572Z,13.90
2023-04-08T10:24:16.564Z,22.00
2023-04-08T10:26:49.172Z,17.60
2023-04-08T10:29:41.584Z,16.20
2023-04-08T10:32:31.500Z,17.80
2023-04-08T10:35:04.897Z,18.80
2023-04-08T10:37:37.588Z,18.70
2023-04-08T10:40:12.315Z,17.60
2023-04-08T10:42:46.417Z,24.10
2023-04-08T10:45:21.299Z,22.30
2023-04-08T10:47:54.963Z,19.50
2023-04-08T10:50:28.184Z,31.40
2023-04-08T10:53:02.676Z,24.20
2023-04-08T10:55:36.153Z,23.80
2023-04-08T10:58:16.031Z,20.10
2023-04-08T11:00:49.820Z,17.50
2023-04-08T11:03:25.070Z,18.80
2023-04-08T11:05:59.277Z,25.40
2023-04-08T11:08:34.981Z,17.20
2023-04-08T11:11:09.540Z,21.40
2023-04-08T11:13:52.090Z,20.40
2023-04-08T11:16:26.256Z,18.20
2023-04-08T11:18:59.410Z,17.70
2023-04-08T11:21:33.521Z,18.80
2023-04-08T11:24:13.633Z,23.50
2023-04-08T11:26:46.289Z,18.10
2023-04-08T11:29:20.393Z,7.90
2023-04-08T11:31:52.951Z,9.80
2023-04-08T11:34:28.952Z,6.00
2023-04-08T11:37:02.910Z,3.90
2023-04-08T11:39:35.674Z,11.80
2023-04-08T11:42:08.910Z,9.50
2023-04-08T11:44:41.489Z,9.20
2023-04-08T11:47:14.733Z,6.20
2023-04-08T11:49:50.634Z,5.00
2023-04-08T11:52:24.259Z,2.90
2023-04-08T11:54:57.141Z,3.50
2023-04-08T11:57:32.941Z,3.70
2023-04-08T12:00:07.294Z,7.80
2023-04-08T12:02:43.532Z,7.70
2023-04-08T12:05:21.621Z,7.30
2023-04-08T12:07:54.433Z,12.90
2023-04-08T12:10:27.225Z,15.20
2023-04-08T12:13:00.933Z,14.40
2023-04-08T12:15:34.253Z,9.70
2023-04-08T12:18:07.199Z,10.90
2023-04-08T12:20:44.310Z,13.40
2023-04-08T12:23:17.241Z,18.10
2023-04-08T12:25:49.785Z,10.50
2023-04-08T12:28:23.020Z,11.50
2023-04-08T12:30:55.917Z,11.30
2023-04-08T12:33:30.799Z,6.70
2023-04-08T12:36:03.585Z,12.00
2023-04-08T12:38:36.465Z,15.40
2023-04-08T12:41:09.908Z,8.70
2023-04-08T12:43:42.791Z,15.70
2023-04-08T12:46:18.261Z,7.40
2023-04-08T12:49:03.157Z,8.00
2023-04-08T12:51:43.369Z,8.10
2023-04-08T12:54:16.258Z,7.30
2023-04-08T12:56:49.119Z,6.60
2023-04-08T12:59:22.607Z,9.10
2023-04-08T13:01:56.345Z,9.00
2023-04-08T13:04:29.080Z,7.50
2023-04-08T13:07:02.040Z,5.00
2023-04-08T13:09:35.349Z,10.40
2023-04-08T13:12:09.088Z,5.20
2023-04-08T13:14:44.040Z,6.10
2023-04-08T13:17:16.771Z,11.00
2023-04-08T13:19:51.159Z,8.50
2023-04-08T13:22:24.332Z,5.40
2023-04-08T13:25:03.099Z,7.20
2023-04-08T13:27:36.053Z,7.40
2023-04-08T13:30:15.902Z,5.90
2023-04-08T13:32:48.928Z,6.00
2023-04-08T13:35:21.664Z,7.90
2023-04-08T13:37:54.868Z,8.90
2023-04-08T13:40:30.655Z,7.50
2023-04-08T13:43:05.213Z,7.90
2023-04-08T13:45:39.144Z,9.00
2023-04-08T13:48:11.957Z,8.80
2023-04-08T13:50:47.017Z,10.90
2023-04-08T13:53:20.202Z,8.00
2023-04-08T13:55:55.449Z,6.20
2023-04-08T13:58:28.627Z,7.60
2023-04-08T14:01:01.966Z,6.40
2023-04-08T14:03:35.345Z,5.10
2023-04-08T14:06:08.979Z,9.10
2023-04-08T14:08:41.900Z,7.30
2023-04-08T14:11:14.836Z,8.00
2023-04-08T14:13:48.081Z,12.30
2023-04-08T14:16:23.079Z,8.70
2023-04-08T14:18:57.312Z,9.30
2023-04-08T14:21:30.186Z,13.20
2023-04-08T14:24:03.241Z,11.30
2023-04-08T14:26:36.642Z,7.40
2023-04-08T14:29:09.932Z,6.90
2023-04-08T14:31:42.929Z,7.50
2023-04-08T14:34:15.825Z,15.20
2023-04-08T14:36:49.011Z,10.10
2023-04-08T14:39:22.321Z,9.50
2023-04-08T14:41:58.555Z,20.50
2023-04-08T14:44:32.478Z,20.50
2023-04-08T14:47:07.217Z,11.30
2023-04-08T14:49:40.397Z,9.50
2023-04-08T14:52:13.815Z,9.50
2023-04-08T14:54:47.354Z,10.80
2023-04-08T14:57:20.349Z,15.90
2023-04-08T14:59:53.738Z,11.90
2023-04-08T15:02:26.564Z,12.50
2023-04-08T15:04:59.319Z,10.30
2023-04-08T15:07:32.081Z,10.60
2023-04-08T15:10:05.245Z,12.70
2023-04-08T15:12:41.550Z,12.30
2023-04-08T15:15:14.512Z,12.30
2023-04-08T15:17:49.099Z,12.30
2023-04-08T15:20:22.861Z,9.80
2023-04-08T15:22:55.575Z,14.10
2023-04-08T15:25:28.387Z,14.60
2023-04-08T15:28:05.088Z,16.50
2023-04-08T15:30:38.590Z,13.70
2023-04-08T15:33:11.533Z,11.70
2023-04-08T15:35:44.581Z,6.90
2023-04-08T15:38:17.707Z,6.40
2023-04-08T15:40:50.281Z,8.50
2023-04-08T15:43:23.464Z,9.50
2023-04-08T15:45:56.605Z,14.50
2023-04-08T15:48:29.568Z,14.90
2023-04-08T15:51:03.786Z,12.20
2023-04-08T15:53:36.553Z,8.50
2023-04-08T15:56:10.055Z,9.90
2023-04-08T15:58:45.364Z,11.20
2023-04-08T16:01:19.070Z,9.70
2023-04-08T16:03:54.156Z,14.90
2023-04-08T16:06:28.091Z,21.20
2023-04-08T16:09:01.549Z,20.70
2023-04-08T16:11:40.033Z,19.50
2023-04-08T16:14:13.017Z,23.20
2023-04-08T16:16:47.536Z,16.50
2023-04-08T16:19:22.760Z,18.60
2023-04-08T16:21:55.762Z,18.50
2023-04-08T16:24:29.125Z,19.70
2023-04-08T16:27:02.552Z,21.00
2023-04-08T16:29:35.432Z,19.40
2023-04-08T16:32:11.685Z,24.90
2023-04-08T16:34:45.911Z,22.30
2023-04-08T16:37:18.974Z,26.20
2023-04-08T16:39:51.946Z,21.60
2023-04-08T16:42:24.744Z,24.00
2023-04-08T16:45:01.469Z,27.10
2023-04-08T16:47:35.047Z,16.30
2023-04-08T16:50:09.940Z,13.70
2023-04-08T16:52:49.547Z,13.40
2023-04-08T16:55:22.345Z,13.50
2023-04-08T16:57:55.421Z,12.90
2023-04-08T17:00:28.713Z,7.80
2023-04-08T17:03:02.599Z,7.10
2023-04-08T17:05:35.380Z,6.20
2023-04-08T17:08:11.210Z,6.00
2023-04-08T17:10:48.783Z,6.90
2023-04-08T17:13:21.910Z,6.80
2023-04-08T17:15:57.825Z,9.10
2023-04-08T17:18:34.384Z,6.50
2023-04-08T17:21:07.518Z,7.10
2023-04-08T17:23:41.143Z,7.70
2023-04-08T17:26:14.799Z,6.50
2023-04-08T17:28:47.824Z,9.40
2023-04-08T17:31:20.976Z,7.30
2023-04-08T17:33:53.885Z,7.10
2023-04-08T17:36:29.902Z,7.70
2023-04-08T17:39:03.816Z,10.80
2023-04-08T17:41:40.419Z,12.90
2023-04-08T17:44:16.016Z,9.80
2023-04-08T17:46:49.909Z,8.30
2023-04-08T17:49:26.612Z,11.80
2023-04-08T17:51:59.235Z,9.10
2023-04-08T17:54:34.729Z,13.40
2023-04-08T17:57:07.896Z,8.60
2023-04-08T17:59:41.389Z,9.30
2023-04-08T18:02:17.177Z,6.70
2023-04-08T18:04:51.995Z,7.30
2023-04-08T18:07:25.062Z,6.00
2023-04-08T18:09:58.099Z,7.10
2023-04-08T18:12:32.703Z,7.20
2023-04-08T18:15:05.496Z,8.30
2023-04-08T18:17:39.130Z,10.50
2023-04-08T18:20:13.218Z,11.80
2023-04-08T18:22:46.142Z,8.10
2023-04-08T18:25:22.744Z,9.50
2023-04-08T18:27:55.545Z,9.20
2023-04-08T18:30:30.384Z,9.40
2023-04-08T18:33:04.317Z,8.80
2023-04-08T18:35:37.237Z,8.30
2023-04-08T18:38:10.402Z,8.40
2023-04-08T18:40:45.875Z,11.30
2023-04-08T18:43:18.864Z,9.30
2023-04-08T18:45:52.380Z,9.40
2023-04-08T18:48:25.673Z,10.30
2023-04-08T18:50:58.824Z,12.80
2023-04-08T18:53:31.675Z,9.80
2023-04-08T18:56:04.960Z,9.10
2023-04-08T18:58:38.002Z,9.10
2023-04-08T19:01:11.096Z,9.90
2023-04-08T19:03:44.720Z,9.90
2023-04-08T19:06:17.910Z,11.20
2023-04-08T19:08:51.318Z,10.80
2023-04-08T19:11:29.194Z,11.60
2023-04-08T19:14:02.458Z,11.00
2023-04-08T19:16:37.518Z,9.10
2023-04-08T19:19:12.119Z,9.60
2023-04-08T19:21:45.809Z,10.30
2023-04-08T19:24:22.337Z,10.20
2023-04-08T19:26:55.021Z,13.90
2023-04-08T19:29:31.484Z,9.70
2023-04-08T19:32:04.551Z,11.80
2023-04-08T19:34:39.855Z,14.50
2023-04-08T19:37:13.651Z,16.70
2023-04-08T19:39:47.026Z,16.70
2023-04-08T19:42:20.605Z,16.60
2023-04-08T19:44:55.144Z,18.00
2023-04-08T19:47:28.218Z,22.40
2023-04-08T19:50:01.154Z,21.80
2023-04-08T19:52:34.148Z,23.00
2023-04-08T19:55:10.348Z,24.00
2023-04-08T19:57:46.009Z,28.00
2023-04-08T20:00:26.269Z,20.00
2023-04-08T20:03:00.670Z,26.00
2023-04-08T20:05:33.958Z,18.10
2023-04-08T20:08:09.366Z,19.90
2023-04-08T20:10:43.235Z,23.30
2023-04-08T20:13:16.474Z,20.80
2023-04-08T20:15:49.841Z,21.70
2023-04-08T20:18:24.565Z,19.00
2023-04-08T20:21:02.558Z,19.40
2023-04-08T20:23:40.481Z,21.60
2023-04-08T20:26:13.797Z,20.00
2023-04-08T20:28:48.505Z,25.20
2023-04-08T20:31:21.404Z,21.70
2023-04-08T20:33:55.960Z,18.00
2023-04-08T20:36:30.372Z,23.30
2023-04-08T20:39:03.547Z,23.00
2023-04-08T20:41:37.819Z,20.50
2023-04-08T20:44:10.944Z,22.40
2023-04-08T20:46:43.768Z,22.20
2023-04-08T20:49:17.076Z,23.10
2023-04-08T20:51:50.797Z,23.40
2023-04-08T20:54:25.302Z,20.10
2023-04-08T20:56:58.070Z,20.10
2023-04-08T20:59:40.666Z,24.40
2023-04-08T21:02:13.492Z,20.20
2023-04-08T21:04:46.703Z,21.90
2023-04-08T21:07:19.372Z,21.40
2023-04-08T21:09:52.587Z,19.40
2023-04-08T21:12:25.546Z,24.10
2023-04-08T21:14:58.217Z,22.80
2023-04-08T21:17:31.563Z,18.90
2023-04-08T21:20:05.659Z,28.20
2023-04-08T21:22:39.795Z,21.40
2023-04-08T21:25:13.390Z,19.50
2023-04-08T21:27:46.710Z,25.40
2023-04-08T21:30:21.578Z,20.30
2023-04-08T21:32:54.495Z,19.80
2023-04-08T21:35:27.736Z,23.90
2023-04-08T21:38:00.690Z,23.00
2023-04-08T21:40:33.571Z,19.00
2023-04-08T21:43:06.917Z,21.90
2023-04-08T21:45:40.270Z,17.80
2023-04-08T21:48:13.483Z,19.40
2023-04-08T21:50:49.399Z,21.40
2023-04-08T21:53:23.959Z,29.40
2023-04-08T21:55:57.302Z,24.00
2023-04-08T21:58:30.124Z,23.60
2023-04-08T22:01:09.215Z,24.60
2023-04-08T22:03:44.124Z,24.70
2023-04-08T22:06:29.001Z,31.40
2023-04-08T22:09:05.851Z,26.20
2023-04-08T22:11:40.159Z,34.20
2023-04-08T22:14:13.217Z,28.30
2023-04-08T22:16:46.403Z,25.20
2023-04-08T22:19:20.016Z,25.40
2023-04-08T22:22:01.247Z,23.50
2023-04-08T22:24:34.817Z,25.10
2023-04-08T22:27:10.074Z,27.00
2023-04-08T22:29:43.682Z,26.20
2023-04-08T22:32:18.628Z,21.40
2023-04-08T22:34:51.650Z,39.90
2023-04-08T22:37:24.817Z,20.40
2023-04-08T22:39:58.865Z,18.70
2023-04-08T22:42:33.009Z,20.70
2023-04-08T22:45:06.510Z,26.40
2023-04-08T22:47:39.635Z,29.10
2023-04-08T22:50:13.749Z,32.70
2023-04-08T22:52:46.623Z,24.70
2023-04-08T22:55:19.780Z,27.00
2023-04-08T22:57:56.814Z,25.40
2023-04-08T23:00:29.759Z,37.70
2023-04-08T23:03:05.084Z,55.40
2023-04-08T23:05:38.066Z,53.30
2023-04-08T23:08:11.728Z,56.20
2023-04-08T23:10:44.855Z,50.40
2023-04-08T23:13:17.938Z,48.90
2023-04-08T23:15:51.420Z,35.50
2023-04-08T23:18:25.088Z,34.00
2023-04-08T23:21:00.136Z,28.90
2023-04-08T23:23:34.098Z,35.20
2023-04-08T23:26:06.998Z,35.60
2023-04-08T23:28:40.089Z,35.70
2023-04-08T23:31:12.881Z,37.20
2023-04-08T23:33:46.737Z,41.00
2023-04-08T23:36:20.313Z,45.00
2023-04-08T23:38:54.163Z,42.90
2023-04-08T23:41:27.190Z,42.30
2023-04-08T23:44:00.152Z,51.70
2023-04-08T23:46:33.681Z,56.40
2023-04-08T23:49:10.991Z,57.40
2023-04-08T23:51:44.439Z,52.50
2023-04-08T23:54:17.322Z,56.10
2023-04-08T23:56:50.875Z,42.20
2023-04-08T23:59:23.826Z,35.80
